createdAt,value
2023-05-15T00:01:40.286Z,14.81
2023-05-15T00:04:07.398Z,14.54
2023-05-15T00:06:34.742Z,14.32
2023-05-15T00:09:02.064Z,14.34
2023-05-15T00:11:29.085Z,14.24
2023-05-15T00:13:56.142Z,14.24
2023-05-15T00:16:23.255Z,14.37
2023-05-15T00:18:50.691Z,14.48
2023-05-15T00:21:18.012Z,14.48
2023-05-15T00:23:45.256Z,14.65
2023-05-15T00:26:16.021Z,14.52
2023-05-15T00:28:43.059Z,14.41
2023-05-15T00:31:10.280Z,14.14
2023-05-15T00:33:37.165Z,14.03
2023-05-15T00:36:04.381Z,13.85
2023-05-15T00:38:34.621Z,14.07
2023-05-15T00:41:06.945Z,14.11
2023-05-15T00:43:36.950Z,14.17
2023-05-15T00:46:04.807Z,14.00
2023-05-15T00:48:33.614Z,14.14
2023-05-15T00:51:01.239Z,14.17
2023-05-15T00:53:29.295Z,14.17
2023-05-15T00:55:58.417Z,14.17
2023-05-15T00:58:27.949Z,14.01
2023-05-15T01:00:55.086Z,14.13
2023-05-15T01:03:22.380Z,14.14
2023-05-15T01:05:49.588Z,14.09
2023-05-15T01:08:27.401Z,14.22
2023-05-15T01:10:55.705Z,14.26
2023-05-15T01:13:23.497Z,14.23
2023-05-15T01:15:50.630Z,14.12
2023-05-15T01:18:17.671Z,14.23
2023-05-15T01:21:12.927Z,14.19
2023-05-15T01:24:20.034Z,14.38
2023-05-15T01:26:54.269Z,14.43
2023-05-15T01:29:28.725Z,14.49
2023-05-15T01:32:00.909Z,14.31
2023-05-15T01:34:34.334Z,14.35
2023-05-15T01:37:04.490Z,14.35
2023-05-15T01:39:34.596Z,14.37
2023-05-15T01:42:07.208Z,14.32
2023-05-15T01:44:41.526Z,14.37
2023-05-15T01:47:15.607Z,14.31
2023-05-15T01:49:45.460Z,14.43
2023-05-15T01:52:18.322Z,14.56
2023-05-15T01:54:49.061Z,14.27
2023-05-15T01:57:19.928Z,14.46
2023-05-15T01:59:47.694Z,14.34
2023-05-15T02:02:16.126Z,14.14
2023-05-15T02:04:45.727Z,14.23
2023-05-15T02:07:13.993Z,14.54
2023-05-15T02:09:42.620Z,14.39
2023-05-15T02:12:12.623Z,14.43
2023-05-15T02:14:41.363Z,14.86
2023-05-15T02:17:08.484Z,14.63
2023-05-15T02:19:36.168Z,14.49
2023-05-15T02:22:03.076Z,14.48
2023-05-15T02:24:30.281Z,14.06
2023-05-15T02:27:26.854Z,14.58
2023-05-15T02:30:26.086Z,14.65
2023-05-15T02:33:07.766Z,14.80
2023-05-15T02:35:48.101Z,14.58
2023-05-15T02:38:23.382Z,14.52
2023-05-15T02:40:51.545Z,14.22
2023-05-15T02:43:20.109Z,14.56
2023-05-15T02:45:48.246Z,14.21
2023-05-15T02:48:17.455Z,14.16
2023-05-15T02:50:44.633Z,14.07
2023-05-15T02:53:14.541Z,14.21
2023-05-15T02:55:41.853Z,14.27
2023-05-15T02:58:09.319Z,14.29
2023-05-15T03:00:38.835Z,14.07
2023-05-15T03:03:06.127Z,14.27
2023-05-15T03:05:33.294Z,14.21
2023-05-15T03:08:01.059Z,14.51
2023-05-15T03:10:28.061Z,14.24
2023-05-15T03:12:58.626Z,14.11
2023-05-15T03:15:26.065Z,14.13
2023-05-15T03:17:56.217Z,14.25
2023-05-15T03:20:25.643Z,13.88
2023-05-15T03:22:53.104Z,13.94
2023-05-15T03:25:20.223Z,13.97
2023-05-15T03:27:49.719Z,14.06
2023-05-15T03:30:16.610Z,13.94
2023-05-15T03:32:43.923Z,13.86
2023-05-15T03:35:11.089Z,13.67
2023-05-15T03:37:38.128Z,13.79
2023-05-15T03:40:05.761Z,13.89
2023-05-15T03:42:33.063Z,13.65
2023-05-15T03:45:03.445Z,13.65
2023-05-15T03:47:33.372Z,13.89
2023-05-15T03:50:03.159Z,13.95
2023-05-15T03:52:33.237Z,14.12
2023-05-15T03:55:03.498Z,13.88
2023-05-15T03:57:31.076Z,13.98
2023-05-15T03:59:58.746Z,14.15
2023-05-15T04:02:26.427Z,13.98
2023-05-15T04:04:53.512Z,13.84
2023-05-15T04:12:35.769Z,14.03
2023-05-15T04:15:23.312Z,13.77
2023-05-15T04:17:52.303Z,13.70
2023-05-15T04:20:21.599Z,13.83
2023-05-15T04:22:48.729Z,13.95
2023-05-15T04:25:16.425Z,13.88
2023-05-15T04:27:43.919Z,13.82
2023-05-15T04:30:12.018Z,13.94
2023-05-15T04:32:39.903Z,14.00
2023-05-15T04:35:10.334Z,13.91
2023-05-15T04:37:38.244Z,13.91
2023-05-15T04:40:08.275Z,13.92
2023-05-15T04:42:37.689Z,14.25
2023-05-15T04:45:10.166Z,14.15
2023-05-15T04:47:37.901Z,14.10
2023-05-15T04:50:09.414Z,13.92
2023-05-15T04:52:36.366Z,13.91
2023-05-15T04:55:06.929Z,14.04
2023-05-15T04:57:34.951Z,14.12
2023-05-15T05:00:02.346Z,14.10
2023-05-15T05:02:29.398Z,14.28
2023-05-15T05:04:56.485Z,14.40
2023-05-15T05:07:23.473Z,14.53
2023-05-15T05:09:50.814Z,14.38
2023-05-15T05:12:20.586Z,14.60
2023-05-15T05:14:50.104Z,14.59
2023-05-15T05:17:17.235Z,14.98
2023-05-15T05:19:44.027Z,15.04
2023-05-15T05:22:11.533Z,14.86
2023-05-15T05:24:38.308Z,14.93
2023-05-15T05:27:05.608Z,14.91
2023-05-15T05:29:32.845Z,14.85
2023-05-15T05:31:59.780Z,15.01
2023-05-15T05:34:26.745Z,14.77
2023-05-15T05:36:53.625Z,14.89
2023-05-15T05:39:21.104Z,15.11
2023-05-15T05:41:47.906Z,14.97
2023-05-15T05:44:14.968Z,15.32
2023-05-15T05:46:41.852Z,15.66
2023-05-15T05:49:08.965Z,14.85
2023-05-15T05:51:39.404Z,15.01
2023-05-15T05:54:06.429Z,15.25
2023-05-15T05:56:33.240Z,15.46
2023-05-15T05:59:12.567Z,15.29
2023-05-15T06:01:42.158Z,15.58
2023-05-15T06:04:12.692Z,15.59
2023-05-15T06:06:45.878Z,15.41
2023-05-15T06:09:15.081Z,15.17
2023-05-15T06:11:42.187Z,15.73
2023-05-15T06:14:14.207Z,15.80
2023-05-15T06:16:41.730Z,15.76
2023-05-15T06:19:10.408Z,15.92
2023-05-15T06:21:38.022Z,15.78
2023-05-15T06:24:20.641Z,15.84
2023-05-15T06:26:47.531Z,15.78
2023-05-15T06:29:14.175Z,15.54
2023-05-15T06:31:42.053Z,15.92
2023-05-15T06:34:08.902Z,15.76
2023-05-15T06:36:36.274Z,15.69
2023-05-15T06:39:03.155Z,16.03
2023-05-15T06:41:45.820Z,15.96
2023-05-15T06:44:15.440Z,16.12
2023-05-15T06:46:42.670Z,16.03
2023-05-15T06:49:09.623Z,15.97
2023-05-15T06:51:41.790Z,16.18
2023-05-15T06:54:08.737Z,16.26
2023-05-15T06:56:35.749Z,16.33
2023-05-15T06:59:05.450Z,16.49
2023-05-15T07:01:32.451Z,16.73
2023-05-15T07:04:02.330Z,16.45
2023-05-15T07:06:35.843Z,16.76
2023-05-15T07:09:02.909Z,16.88
2023-05-15T07:11:29.923Z,16.81
2023-05-15T07:13:56.941Z,16.91
2023-05-15T07:16:26.403Z,16.82
2023-05-15T07:18:53.416Z,17.05
2023-05-15T07:21:20.303Z,17.11
2023-05-15T07:23:49.686Z,17.12
2023-05-15T07:26:23.734Z,17.46
2023-05-15T07:29:00.376Z,17.41
2023-05-15T07:31:27.201Z,17.62
2023-05-15T07:33:55.148Z,17.52
2023-05-15T07:36:22.614Z,17.49
2023-05-15T07:38:49.667Z,17.34
2023-05-15T07:41:19.625Z,17.18
2023-05-15T07:43:46.707Z,17.12
2023-05-15T07:46:13.812Z,17.03
2023-05-15T07:48:43.239Z,17.08
2023-05-15T07:51:10.668Z,17.21
2023-05-15T07:53:37.748Z,17.11
2023-05-15T07:56:05.095Z,16.97
2023-05-15T07:58:32.105Z,17.14
2023-05-15T08:00:59.145Z,16.83
2023-05-15T08:03:27.856Z,16.68
2023-05-15T08:05:54.924Z,16.80
2023-05-15T08:08:22.466Z,16.63
2023-05-15T08:10:49.346Z,16.69
2023-05-15T08:13:16.367Z,16.82
2023-05-15T08:15:43.785Z,16.85
2023-05-15T08:18:11.756Z,16.96
2023-05-15T08:20:39.624Z,16.88
2023-05-15T08:23:07.692Z,17.07
2023-05-15T08:25:34.719Z,17.04
2023-05-15T08:28:02.592Z,17.12
2023-05-15T08:30:30.083Z,17.04
2023-05-15T08:32:57.066Z,17.28
2023-05-15T08:35:25.933Z,17.25
2023-05-15T08:38:03.329Z,17.19
2023-05-15T08:40:39.026Z,17.06
2023-05-15T08:43:16.091Z,17.56
2023-05-15T08:45:44.149Z,17.72
2023-05-15T08:48:15.547Z,16.98
2023-05-15T08:50:44.458Z,17.09
2023-05-15T08:53:15.434Z,17.47
2023-05-15T08:55:45.494Z,17.33
2023-05-15T08:58:15.184Z,17.37
2023-05-15T09:00:42.225Z,17.30
2023-05-15T09:03:15.694Z,17.39
2023-05-15T09:05:44.532Z,17.27
2023-05-15T09:08:12.158Z,17.54
2023-05-15T09:10:39.296Z,17.64
2023-05-15T09:13:07.678Z,17.67
2023-05-15T09:15:44.895Z,17.45
2023-05-15T09:18:11.991Z,17.30
2023-05-15T09:20:39.022Z,17.21
2023-05-15T09:23:25.752Z,17.06
2023-05-15T09:25:55.012Z,16.97
2023-05-15T09:28:32.200Z,17.19
2023-05-15T09:31:05.481Z,16.88
2023-05-15T09:33:34.940Z,16.90
2023-05-15T09:36:12.634Z,16.62
2023-05-15T09:38:43.929Z,16.91
2023-05-15T09:41:18.655Z,17.01
2023-05-15T09:43:45.553Z,16.94
2023-05-15T09:46:16.153Z,16.98
2023-05-15T09:48:43.480Z,17.03
2023-05-15T09:51:18.511Z,16.74
2023-05-15T09:53:50.963Z,16.83
2023-05-15T09:56:18.808Z,17.18
2023-05-15T09:59:00.372Z,16.99
2023-05-15T10:01:34.518Z,17.16
2023-05-15T10:04:03.819Z,17.06
2023-05-15T10:06:43.584Z,17.39
2023-05-15T10:09:11.390Z,17.19
2023-05-15T10:11:40.402Z,17.17
2023-05-15T10:14:14.880Z,17.29
2023-05-15T10:16:45.313Z,17.44
2023-05-15T10:19:13.775Z,17.47
2023-05-15T10:21:42.638Z,17.34
2023-05-15T10:24:11.339Z,17.38
2023-05-15T10:26:45.050Z,17.42
2023-05-15T10:29:25.969Z,17.84
2023-05-15T10:31:53.836Z,17.79
2023-05-15T10:34:21.386Z,17.76
2023-05-15T10:36:50.379Z,17.93
2023-05-15T10:39:30.037Z,17.87
2023-05-15T10:41:59.976Z,17.69
2023-05-15T10:44:29.111Z,17.96
2023-05-15T10:46:56.597Z,17.82
2023-05-15T10:49:23.644Z,17.64
2023-05-15T10:51:55.905Z,17.50
2023-05-15T10:54:23.247Z,17.58
2023-05-15T10:56:52.221Z,17.55
2023-05-15T10:59:19.555Z,17.66
2023-05-15T11:01:49.008Z,18.19
2023-05-15T11:04:23.018Z,18.30
2023-05-15T11:06:52.296Z,17.89
2023-05-15T11:09:28.560Z,18.28
2023-05-15T11:12:00.461Z,18.11
2023-05-15T11:14:29.158Z,18.27
2023-05-15T11:16:57.644Z,18.69
2023-05-15T11:19:25.190Z,18.85
2023-05-15T11:22:04.476Z,19.01
2023-05-15T11:24:56.739Z,19.14
2023-05-15T11:27:24.730Z,18.99
2023-05-15T11:30:18.614Z,18.56
2023-05-15T11:33:04.197Z,18.99
2023-05-15T11:35:48.419Z,19.15
2023-05-15T11:38:21.089Z,19.12
2023-05-15T11:41:00.671Z,19.17
2023-05-15T11:43:30.624Z,19.20
2023-05-15T11:46:05.008Z,18.67
2023-05-15T11:48:39.650Z,18.94
2023-05-15T11:51:16.114Z,18.83
2023-05-15T11:53:43.535Z,18.59
2023-05-15T11:56:18.301Z,18.68
2023-05-15T11:58:48.237Z,18.69
2023-05-15T12:01:15.064Z,18.68
2023-05-15T12:03:42.432Z,18.66
2023-05-15T12:06:10.845Z,18.51
2023-05-15T12:08:38.478Z,19.04
2023-05-15T12:11:06.061Z,18.86
2023-05-15T12:13:34.013Z,18.95
2023-05-15T12:16:05.236Z,18.69
2023-05-15T12:18:34.865Z,19.00
2023-05-15T12:21:01.902Z,19.33
2023-05-15T12:23:29.083Z,19.44
2023-05-15T12:26:01.180Z,19.70
2023-05-15T12:28:29.309Z,19.69
2023-05-15T12:30:56.748Z,20.38
2023-05-15T12:33:25.108Z,19.77
2023-05-15T12:35:58.275Z,20.14
2023-05-15T12:38:27.955Z,20.73
2023-05-15T12:40:55.044Z,20.47
2023-05-15T12:43:25.382Z,21.06
2023-05-15T12:45:53.911Z,20.44
2023-05-15T12:48:21.811Z,20.77
2023-05-15T12:50:51.756Z,20.99
2023-05-15T12:53:18.765Z,20.87
2023-05-15T12:55:46.935Z,21.31
2023-05-15T12:58:15.903Z,21.63
2023-05-15T13:00:46.409Z,21.40
2023-05-15T13:03:14.277Z,21.50
2023-05-15T13:05:45.838Z,21.77
2023-05-15T13:08:17.589Z,21.59
2023-05-15T13:10:45.444Z,21.52
2023-05-15T13:13:15.300Z,21.72
2023-05-15T13:15:45.732Z,21.56
2023-05-15T13:18:14.838Z,21.84
2023-05-15T13:20:46.508Z,21.51
2023-05-15T13:23:16.261Z,21.68
2023-05-15T13:25:43.601Z,21.39
2023-05-15T13:28:11.403Z,21.60
2023-05-15T13:30:45.733Z,21.17
2023-05-15T13:33:13.287Z,20.79
2023-05-15T13:35:43.403Z,20.82
2023-05-15T13:38:11.847Z,21.08
2023-05-15T13:40:39.260Z,20.98
2023-05-15T13:43:08.737Z,21.12
2023-05-15T13:45:38.488Z,21.16
2023-05-15T13:48:05.760Z,21.19
2023-05-15T13:50:36.143Z,21.32
2023-05-15T13:53:02.885Z,21.38
2023-05-15T13:55:30.725Z,21.66
2023-05-15T13:57:58.584Z,21.92
2023-05-15T14:00:26.843Z,22.32
2023-05-15T14:02:57.251Z,22.29
2023-05-15T14:05:24.572Z,22.39
2023-05-15T14:07:51.966Z,22.41
2023-05-15T14:10:19.984Z,22.07
2023-05-15T14:12:58.943Z,22.11
2023-05-15T14:15:28.012Z,22.24
2023-05-15T14:17:56.497Z,22.11
2023-05-15T14:20:34.202Z,22.16
2023-05-15T14:23:01.192Z,22.01
2023-05-15T14:25:28.075Z,22.32
2023-05-15T14:27:55.990Z,22.38
2023-05-15T14:30:23.914Z,22.24
2023-05-15T14:32:59.545Z,22.09
2023-05-15T14:35:28.923Z,22.16
2023-05-15T14:37:55.838Z,22.03
2023-05-15T14:40:22.772Z,22.23
2023-05-15T14:42:49.753Z,22.12
2023-05-15T14:45:23.273Z,22.11
2023-05-15T14:47:50.351Z,22.20
2023-05-15T14:50:20.285Z,22.03
2023-05-15T14:53:21.805Z,22.00
2023-05-15T14:56:13.319Z,21.87
2023-05-15T14:58:56.959Z,21.74
2023-05-15T15:01:49.423Z,21.75
2023-05-15T15:04:38.516Z,21.50
2023-05-15T15:07:32.962Z,21.52
2023-05-15T15:16:55.013Z,21.62
2023-05-15T15:19:20.139Z,21.81
2023-05-15T15:21:48.742Z,21.79
2023-05-15T15:29:30.651Z,21.82
2023-05-15T15:31:00.021Z,21.95
2023-05-15T15:36:45.877Z,21.72
2023-05-15T15:39:40.557Z,21.68
2023-05-15T15:42:07.668Z,21.76
2023-05-15T15:44:34.678Z,21.43
2023-05-15T15:47:01.470Z,21.40
2023-05-15T15:49:28.812Z,21.11
2023-05-15T15:51:55.611Z,21.12
2023-05-15T15:54:28.687Z,21.18
2023-05-15T15:56:55.381Z,21.06
2023-05-15T15:59:30.204Z,20.91
2023-05-15T16:02:01.981Z,20.75
2023-05-15T16:04:29.988Z,20.81
2023-05-15T16:06:56.843Z,20.84
2023-05-15T16:09:26.806Z,20.71
2023-05-15T16:11:56.471Z,20.71
2023-05-15T16:14:43.378Z,20.74
2023-05-15T16:17:12.758Z,20.87
2023-05-15T16:19:49.979Z,21.07
2023-05-15T16:22:17.550Z,20.88
2023-05-15T16:27:25.610Z,20.84
2023-05-15T16:29:52.717Z,20.88
2023-05-15T16:32:32.380Z,21.11
2023-05-15T16:34:59.490Z,20.98
2023-05-15T16:37:26.624Z,20.97
2023-05-15T16:39:54.156Z,21.12
2023-05-15T16:42:23.767Z,20.87
2023-05-15T16:44:51.952Z,20.90
2023-05-15T16:47:19.382Z,20.88
2023-05-15T16:49:48.383Z,20.65
2023-05-15T16:54:58.268Z,20.65
2023-05-15T16:57:25.248Z,20.68
2023-05-15T16:59:52.227Z,20.52
2023-05-15T17:02:21.667Z,20.50
2023-05-15T17:05:06.726Z,20.42
2023-05-15T17:07:34.270Z,20.45
2023-05-15T17:10:01.189Z,20.27
2023-05-15T17:12:28.293Z,20.15
2023-05-15T17:14:55.106Z,20.19
2023-05-15T17:17:23.561Z,20.11
2023-05-15T17:19:50.748Z,20.01
2023-05-15T17:22:17.681Z,20.15
2023-05-15T17:24:51.261Z,20.23
2023-05-15T17:27:22.029Z,20.28
2023-05-15T17:29:58.133Z,20.35
2023-05-15T17:32:26.124Z,20.30
2023-05-15T17:34:53.262Z,20.38
2023-05-15T17:37:20.417Z,20.47
2023-05-15T17:39:51.110Z,20.35
2023-05-15T17:42:20.399Z,20.17
2023-05-15T17:44:52.519Z,19.99
2023-05-15T17:47:19.408Z,19.87
2023-05-15T17:49:46.217Z,20.23
2023-05-15T17:52:13.169Z,19.86
2023-05-15T17:55:08.476Z,19.85
2023-05-15T17:57:40.662Z,19.36
2023-05-15T18:00:08.820Z,19.23
2023-05-15T18:02:35.947Z,19.21
2023-05-15T18:05:02.684Z,19.07
2023-05-15T18:07:29.733Z,19.29
2023-05-15T18:09:56.901Z,19.48
2023-05-15T18:15:32.097Z,19.28
2023-05-15T18:18:02.398Z,19.03
2023-05-15T18:20:31.793Z,19.15
2023-05-15T18:22:59.143Z,19.10
2023-05-15T18:25:26.774Z,19.32
2023-05-15T18:27:54.114Z,19.33
2023-05-15T18:30:20.951Z,19.46
2023-05-15T18:32:49.370Z,19.39
2023-05-15T18:38:24.416Z,19.19
2023-05-15T18:40:54.757Z,19.08
2023-05-15T18:43:24.582Z,19.18
2023-05-15T18:45:52.268Z,19.01
2023-05-15T18:48:19.289Z,18.91
2023-05-15T18:50:49.276Z,18.85
2023-05-15T18:53:19.110Z,18.96
2023-05-15T18:55:50.183Z,18.99
2023-05-15T18:58:17.409Z,18.88
2023-05-15T19:00:56.234Z,19.00
2023-05-15T19:03:26.366Z,19.02
2023-05-15T19:05:53.589Z,18.93
2023-05-15T19:08:20.836Z,18.92
2023-05-15T19:10:48.900Z,18.73
2023-05-15T19:16:06.739Z,18.74
2023-05-15T19:18:34.398Z,18.58
2023-05-15T19:21:01.773Z,18.53
2023-05-15T19:23:29.409Z,18.46
2023-05-15T19:25:56.849Z,18.49
2023-05-15T19:28:26.564Z,18.34
2023-05-15T19:30:53.718Z,18.34
2023-05-15T19:33:21.088Z,18.41
2023-05-15T19:35:51.231Z,18.47
2023-05-15T19:38:19.208Z,18.23
2023-05-15T19:40:46.063Z,18.16
2023-05-15T19:43:16.293Z,17.96
2023-05-15T19:45:43.875Z,17.87
2023-05-15T19:48:10.822Z,17.89
2023-05-15T19:50:40.922Z,17.75
2023-05-15T19:53:08.588Z,17.94
2023-05-15T19:55:35.492Z,17.86
2023-05-15T19:58:02.464Z,18.15
2023-05-15T20:00:29.309Z,18.31
2023-05-15T20:02:56.831Z,18.18
2023-05-15T20:05:23.701Z,17.95
2023-05-15T20:07:50.909Z,17.79
2023-05-15T20:10:19.173Z,17.87
2023-05-15T20:12:46.804Z,17.80
2023-05-15T20:15:14.861Z,17.76
2023-05-15T20:17:45.117Z,17.79
2023-05-15T20:20:12.525Z,17.76
2023-05-15T20:22:44.513Z,17.78
2023-05-15T20:25:11.851Z,17.77
2023-05-15T20:27:38.829Z,17.87
2023-05-15T20:30:06.375Z,18.04
2023-05-15T20:32:33.744Z,17.74
2023-05-15T20:35:01.890Z,17.83
2023-05-15T20:37:30.562Z,17.66
2023-05-15T20:40:08.849Z,17.73
2023-05-15T20:42:35.945Z,17.57
2023-05-15T20:45:05.347Z,17.50
